French Camp, California
Current Conditions -  °F | °C
As of 2:02 PM on Sunday 21 Dec 2014 (Local Time) from KSCK Reporting Station
Overcast Overcast  
Wind Chill: 64°   Ceiling: 2600
Heat Index: 64°   Visibility: 10mi
Dew Point: 57°   Wind: 3mph
Humidity: 77%   Direction: 320°NW
Pressure: 30.23"   Gusts: NA
Location:  37.88°N, 121.27°W
Report Text: KSCK 212202Z 32003KT 10SM OVC026 18/14 A3023 RMK AO2
Loading
Personal Weather Stations






























Interactive Weather Map New forecast layout! Learn more

10-Day Weather Forecast

Advertisements
Track Severe Weather on mobile